sensor_id;sensor_type;location;lat;lon;timestamp;P1;durP1;ratioP1;P2;durP2;ratioP2
9661;SDS011;24982;52.344;12.990;2022-07-22T00:00:36;9.38;;;8.68;;
9661;SDS011;24982;52.344;12.990;2022-07-22T00:03:38;8.68;;;7.97;;
9661;SDS011;24982;52.344;12.990;2022-07-22T00:06:40;8.95;;;8.25;;
9661;SDS011;24982;52.344;12.990;2022-07-22T00:09:42;9.32;;;8.52;;
9661;SDS011;24982;52.344;12.990;2022-07-22T00:12:44;8.52;;;7.93;;
9661;SDS011;24982;52.344;12.990;2022-07-22T00:15:47;8.55;;;7.75;;
9661;SDS011;24982;52.344;12.990;2022-07-22T00:18:49;8.63;;;7.93;;
9661;SDS011;24982;52.344;12.990;2022-07-22T00:21:51;8.38;;;7.68;;
9661;SDS011;24982;52.344;12.990;2022-07-22T00:24:54;7.70;;;7.10;;
9661;SDS011;24982;52.344;12.990;2022-07-22T00:27:56;8.40;;;7.55;;
9661;SDS011;24982;52.344;12.990;2022-07-22T00:30:59;7.28;;;6.68;;
9661;SDS011;24982;52.344;12.990;2022-07-22T00:34:02;7.63;;;7.05;;
9661;SDS011;24982;52.344;12.990;2022-07-22T00:37:04;6.95;;;6.40;;
9661;SDS011;24982;52.344;12.990;2022-07-22T00:40:06;7.22;;;6.22;;
9661;SDS011;24982;52.344;12.990;2022-07-22T00:43:09;6.55;;;6.05;;
9661;SDS011;24982;52.344;12.990;2022-07-22T00:46:13;6.85;;;6.03;;
9661;SDS011;24982;52.344;12.990;2022-07-22T00:49:15;6.45;;;5.88;;
9661;SDS011;24982;52.344;12.990;2022-07-22T00:52:18;7.07;;;6.47;;
9661;SDS011;24982;52.344;12.990;2022-07-22T00:55:21;6.18;;;5.68;;
9661;SDS011;24982;52.344;12.990;2022-07-22T00:58:23;6.22;;;5.72;;
9661;SDS011;24982;52.344;12.990;2022-07-22T01:01:26;6.75;;;6.15;;
9661;SDS011;24982;52.344;12.990;2022-07-22T01:04:29;5.78;;;5.35;;
9661;SDS011;24982;52.344;12.990;2022-07-22T01:07:31;6.60;;;6.10;;
9661;SDS011;24982;52.344;12.990;2022-07-22T01:10:33;6.28;;;5.68;;
9661;SDS011;24982;52.344;12.990;2022-07-22T01:13:35;5.93;;;5.47;;
9661;SDS011;24982;52.344;12.990;2022-07-22T01:16:39;5.95;;;5.45;;
9661;SDS011;24982;52.344;12.990;2022-07-22T01:19:41;5.60;;;5.20;;
9661;SDS011;24982;52.344;12.990;2022-07-22T01:22:45;6.60;;;5.82;;
9661;SDS011;24982;52.344;12.990;2022-07-22T01:25:47;5.65;;;5.20;;
9661;SDS011;24982;52.344;12.990;2022-07-22T01:28:49;6.30;;;5.65;;
9661;SDS011;24982;52.344;12.990;2022-07-22T01:31:52;6.35;;;5.88;;
9661;SDS011;24982;52.344;12.990;2022-07-22T01:34:54;6.55;;;6.05;;
9661;SDS011;24982;52.344;12.990;2022-07-22T01:37:57;6.63;;;6.13;;
9661;SDS011;24982;52.344;12.990;2022-07-22T01:41:00;6.47;;;5.88;;
9661;SDS011;24982;52.344;12.990;2022-07-22T01:44:02;6.38;;;5.88;;
9661;SDS011;24982;52.344;12.990;2022-07-22T01:47:05;7.00;;;6.32;;
9661;SDS011;24982;52.344;12.990;2022-07-22T01:50:07;6.40;;;5.90;;
9661;SDS011;24982;52.344;12.990;2022-07-22T01:53:13;7.30;;;6.70;;
9661;SDS011;24982;52.344;12.990;2022-07-22T01:56:16;7.88;;;7.22;;
9661;SDS011;24982;52.344;12.990;2022-07-22T01:59:22;7.25;;;6.65;;
9661;SDS011;24982;52.344;12.990;2022-07-22T02:02:25;8.48;;;7.65;;
9661;SDS011;24982;52.344;12.990;2022-07-22T02:05:27;8.88;;;7.00;;
9661;SDS011;24982;52.344;12.990;2022-07-22T02:08:34;7.70;;;7.05;;
9661;SDS011;24982;52.344;12.990;2022-07-22T02:11:59;7.78;;;7.28;;
9661;SDS011;24982;52.344;12.990;2022-07-22T02:15:06;7.57;;;6.93;;
9661;SDS011;24982;52.344;12.990;2022-07-22T02:18:09;7.78;;;7.18;;
9661;SDS011;24982;52.344;12.990;2022-07-22T02:21:15;8.57;;;7.75;;
9661;SDS011;24982;52.344;12.990;2022-07-22T02:24:19;8.68;;;7.97;;
9661;SDS011;24982;52.344;12.990;2022-07-22T02:27:21;8.05;;;7.25;;
9661;SDS011;24982;52.344;12.990;2022-07-22T02:30:23;8.15;;;7.45;;
9661;SDS011;24982;52.344;12.990;2022-07-22T02:33:25;8.15;;;7.35;;
9661;SDS011;24982;52.344;12.990;2022-07-22T02:36:27;8.63;;;7.90;;
9661;SDS011;24982;52.344;12.990;2022-07-22T02:39:30;8.70;;;7.88;;
9661;SDS011;24982;52.344;12.990;2022-07-22T02:42:32;10.93;;;8.45;;
9661;SDS011;24982;52.344;12.990;2022-07-22T02:45:35;8.52;;;7.80;;
9661;SDS011;24982;52.344;12.990;2022-07-22T02:48:37;9.00;;;8.07;;
9661;SDS011;24982;52.344;12.990;2022-07-22T02:51:43;9.88;;;9.07;;
9661;SDS011;24982;52.344;12.990;2022-07-22T02:54:47;10.75;;;9.85;;
9661;SDS011;24982;52.344;12.990;2022-07-22T02:57:50;9.95;;;9.05;;
9661;SDS011;24982;52.344;12.990;2022-07-22T03:00:52;9.32;;;8.57;;
9661;SDS011;24982;52.344;12.990;2022-07-22T03:03:54;9.82;;;9.02;;
9661;SDS011;24982;52.344;12.990;2022-07-22T03:06:58;8.65;;;7.95;;
9661;SDS011;24982;52.344;12.990;2022-07-22T03:10:02;10.40;;;9.40;;
9661;SDS011;24982;52.344;12.990;2022-07-22T03:13:06;9.85;;;8.95;;
9661;SDS011;24982;52.344;12.990;2022-07-22T03:16:08;9.73;;;8.93;;
9661;SDS011;24982;52.344;12.990;2022-07-22T03:19:12;9.95;;;8.90;;
9661;SDS011;24982;52.344;12.990;2022-07-22T03:22:14;10.00;;;9.10;;
9661;SDS011;24982;52.344;12.990;2022-07-22T03:25:18;10.93;;;10.02;;
9661;SDS011;24982;52.344;12.990;2022-07-22T03:28:20;10.98;;;9.98;;
9661;SDS011;24982;52.344;12.990;2022-07-22T03:31:22;11.38;;;10.38;;
9661;SDS011;24982;52.344;12.990;2022-07-22T03:34:25;11.25;;;10.25;;
9661;SDS011;24982;52.344;12.990;2022-07-22T03:37:36;11.70;;;10.68;;
9661;SDS011;24982;52.344;12.990;2022-07-22T03:40:40;12.50;;;11.38;;
9661;SDS011;24982;52.344;12.990;2022-07-22T03:43:42;11.07;;;10.13;;
9661;SDS011;24982;52.344;12.990;2022-07-22T03:46:45;10.70;;;9.80;;
9661;SDS011;24982;52.344;12.990;2022-07-22T03:49:48;12.52;;;11.43;;
9661;SDS011;24982;52.344;12.990;2022-07-22T03:52:57;10.75;;;9.95;;
9661;SDS011;24982;52.344;12.990;2022-07-22T03:56:01;12.23;;;11.05;;
9661;SDS011;24982;52.344;12.990;2022-07-22T03:59:05;11.60;;;10.65;;
9661;SDS011;24982;52.344;12.990;2022-07-22T04:02:08;12.88;;;11.77;;
9661;SDS011;24982;52.344;12.990;2022-07-22T04:05:10;12.23;;;11.10;;
9661;SDS011;24982;52.344;12.990;2022-07-22T04:08:12;12.27;;;11.27;;
9661;SDS011;24982;52.344;12.990;2022-07-22T04:11:16;12.00;;;11.00;;
9661;SDS011;24982;52.344;12.990;2022-07-22T04:14:18;10.98;;;10.13;;
9661;SDS011;24982;52.344;12.990;2022-07-22T04:17:20;12.32;;;11.13;;
9661;SDS011;24982;52.344;12.990;2022-07-22T04:20:22;12.05;;;11.02;;
9661;SDS011;24982;52.344;12.990;2022-07-22T04:23:44;12.95;;;11.85;;
9661;SDS011;24982;52.344;12.990;2022-07-22T04:26:52;13.40;;;12.00;;
9661;SDS011;24982;52.344;12.990;2022-07-22T04:29:56;13.20;;;11.93;;
9661;SDS011;24982;52.344;12.990;2022-07-22T04:32:58;11.68;;;10.55;;
9661;SDS011;24982;52.344;12.990;2022-07-22T04:36:01;13.40;;;12.20;;
9661;SDS011;24982;52.344;12.990;2022-07-22T04:39:04;11.75;;;10.85;;
9661;SDS011;24982;52.344;12.990;2022-07-22T04:42:08;13.30;;;12.10;;
9661;SDS011;24982;52.344;12.990;2022-07-22T04:45:11;13.02;;;11.93;;
9661;SDS011;24982;52.344;12.990;2022-07-22T04:48:13;12.95;;;11.85;;
9661;SDS011;24982;52.344;12.990;2022-07-22T04:51:16;12.60;;;11.60;;
9661;SDS011;24982;52.344;12.990;2022-07-22T04:54:21;13.27;;;12.13;;
9661;SDS011;24982;52.344;12.990;2022-07-22T04:57:28;13.50;;;12.30;;
9661;SDS011;24982;52.344;12.990;2022-07-22T05:00:32;11.88;;;10.98;;
9661;SDS011;24982;52.344;12.990;2022-07-22T05:03:37;12.93;;;11.70;;
9661;SDS011;24982;52.344;12.990;2022-07-22T05:06:39;13.18;;;11.90;;
9661;SDS011;24982;52.344;12.990;2022-07-22T05:09:41;12.75;;;11.75;;
9661;SDS011;24982;52.344;12.990;2022-07-22T05:12:47;12.52;;;11.50;;
9661;SDS011;24982;52.344;12.990;2022-07-22T05:15:50;12.07;;;11.02;;
9661;SDS011;24982;52.344;12.990;2022-07-22T05:18:52;13.77;;;12.65;;
9661;SDS011;24982;52.344;12.990;2022-07-22T05:21:54;12.82;;;11.73;;
9661;SDS011;24982;52.344;12.990;2022-07-22T05:24:56;12.93;;;11.93;;
9661;SDS011;24982;52.344;12.990;2022-07-22T05:28:00;14.07;;;11.05;;
9661;SDS011;24982;52.344;12.990;2022-07-22T05:31:11;13.00;;;11.80;;
9661;SDS011;24982;52.344;12.990;2022-07-22T05:34:14;11.75;;;10.85;;
9661;SDS011;24982;52.344;12.990;2022-07-22T05:37:20;11.40;;;10.40;;
9661;SDS011;24982;52.344;12.990;2022-07-22T05:40:22;11.82;;;10.82;;
9661;SDS011;24982;52.344;12.990;2022-07-22T05:43:26;12.45;;;11.30;;
9661;SDS011;24982;52.344;12.990;2022-07-22T05:46:28;11.93;;;10.93;;
9661;SDS011;24982;52.344;12.990;2022-07-22T05:49:30;11.68;;;10.68;;
9661;SDS011;24982;52.344;12.990;2022-07-22T05:52:37;12.57;;;11.15;;
9661;SDS011;24982;52.344;12.990;2022-07-22T05:55:39;11.20;;;10.18;;
9661;SDS011;24982;52.344;12.990;2022-07-22T05:58:43;13.18;;;12.05;;
9661;SDS011;24982;52.344;12.990;2022-07-22T06:01:46;11.63;;;10.52;;
9661;SDS011;24982;52.344;12.990;2022-07-22T06:05:14;10.93;;;10.13;;
9661;SDS011;24982;52.344;12.990;2022-07-22T06:08:17;12.38;;;11.00;;
9661;SDS011;24982;52.344;12.990;2022-07-22T06:11:24;11.60;;;10.60;;
9661;SDS011;24982;52.344;12.990;2022-07-22T06:14:28;11.45;;;10.55;;
9661;SDS011;24982;52.344;12.990;2022-07-22T06:17:30;12.23;;;11.07;;
9661;SDS011;24982;52.344;12.990;2022-07-22T06:20:34;12.75;;;11.55;;
9661;SDS011;24982;52.344;12.990;2022-07-22T06:23:37;12.30;;;10.95;;
9661;SDS011;24982;52.344;12.990;2022-07-22T06:26:40;10.95;;;10.02;;
9661;SDS011;24982;52.344;12.990;2022-07-22T06:29:43;11.38;;;10.48;;
9661;SDS011;24982;52.344;12.990;2022-07-22T06:32:46;12.18;;;11.02;;
9661;SDS011;24982;52.344;12.990;2022-07-22T06:35:48;10.70;;;9.90;;
9661;SDS011;24982;52.344;12.990;2022-07-22T06:38:50;10.52;;;9.73;;
9661;SDS011;24982;52.344;12.990;2022-07-22T06:42:11;11.63;;;10.55;;
9661;SDS011;24982;52.344;12.990;2022-07-22T06:45:28;11.27;;;10.38;;
9661;SDS011;24982;52.344;12.990;2022-07-22T06:48:39;9.48;;;8.57;;
9661;SDS011;24982;52.344;12.990;2022-07-22T06:51:42;10.43;;;9.50;;
9661;SDS011;24982;52.344;12.990;2022-07-22T06:54:45;10.60;;;9.68;;
9661;SDS011;24982;52.344;12.990;2022-07-22T06:57:52;11.20;;;10.20;;
9661;SDS011;24982;52.344;12.990;2022-07-22T07:00:56;9.82;;;9.07;;
9661;SDS011;24982;52.344;12.990;2022-07-22T07:04:20;9.43;;;8.68;;
9661;SDS011;24982;52.344;12.990;2022-07-22T07:07:24;9.18;;;8.48;;
9661;SDS011;24982;52.344;12.990;2022-07-22T07:10:31;10.02;;;9.23;;
9661;SDS011;24982;52.344;12.990;2022-07-22T07:13:39;10.35;;;9.55;;
9661;SDS011;24982;52.344;12.990;2022-07-22T07:16:43;9.75;;;9.07;;
9661;SDS011;24982;52.344;12.990;2022-07-22T07:19:46;9.90;;;9.10;;
9661;SDS011;24982;52.344;12.990;2022-07-22T07:22:48;9.23;;;8.48;;
9661;SDS011;24982;52.344;12.990;2022-07-22T07:25:50;9.65;;;8.85;;
9661;SDS011;24982;52.344;12.990;2022-07-22T07:28:52;9.85;;;9.00;;
9661;SDS011;24982;52.344;12.990;2022-07-22T07:32:11;9.20;;;8.38;;
9661;SDS011;24982;52.344;12.990;2022-07-22T07:35:13;8.95;;;8.13;;
9661;SDS011;24982;52.344;12.990;2022-07-22T07:38:16;8.68;;;8.02;;
9661;SDS011;24982;52.344;12.990;2022-07-22T07:41:19;7.70;;;7.10;;
9661;SDS011;24982;52.344;12.990;2022-07-22T07:44:24;7.70;;;7.10;;
9661;SDS011;24982;52.344;12.990;2022-07-22T07:47:28;6.38;;;5.97;;
9661;SDS011;24982;52.344;12.990;2022-07-22T07:50:30;7.80;;;7.05;;
9661;SDS011;24982;52.344;12.990;2022-07-22T07:53:33;6.70;;;6.15;;
9661;SDS011;24982;52.344;12.990;2022-07-22T07:56:36;6.97;;;6.47;;
9661;SDS011;24982;52.344;12.990;2022-07-22T07:59:38;7.03;;;6.50;;
9661;SDS011;24982;52.344;12.990;2022-07-22T08:02:42;6.53;;;6.13;;
9661;SDS011;24982;52.344;12.990;2022-07-22T08:05:44;5.70;;;5.30;;
9661;SDS011;24982;52.344;12.990;2022-07-22T08:08:51;5.88;;;5.45;;
9661;SDS011;24982;52.344;12.990;2022-07-22T08:12:03;5.72;;;5.43;;
9661;SDS011;24982;52.344;12.990;2022-07-22T08:15:33;6.28;;;5.70;;
9661;SDS011;24982;52.344;12.990;2022-07-22T08:18:42;5.80;;;5.40;;
9661;SDS011;24982;52.344;12.990;2022-07-22T08:21:45;5.32;;;5.03;;
9661;SDS011;24982;52.344;12.990;2022-07-22T08:24:59;5.40;;;4.97;;
9661;SDS011;24982;52.344;12.990;2022-07-22T08:28:02;5.10;;;4.72;;
9661;SDS011;24982;52.344;12.990;2022-07-22T08:31:05;5.43;;;5.13;;
9661;SDS011;24982;52.344;12.990;2022-07-22T08:34:08;6.90;;;5.20;;
9661;SDS011;24982;52.344;12.990;2022-07-22T08:37:11;5.30;;;4.93;;
9661;SDS011;24982;52.344;12.990;2022-07-22T08:40:13;4.85;;;4.55;;
9661;SDS011;24982;52.344;12.990;2022-07-22T08:43:17;4.85;;;4.50;;
9661;SDS011;24982;52.344;12.990;2022-07-22T08:46:20;4.95;;;4.63;;
9661;SDS011;24982;52.344;12.990;2022-07-22T08:49:49;4.50;;;4.20;;
9661;SDS011;24982;52.344;12.990;2022-07-22T08:53:03;3.95;;;3.75;;
9661;SDS011;24982;52.344;12.990;2022-07-22T08:56:06;4.90;;;4.28;;
9661;SDS011;24982;52.344;12.990;2022-07-22T08:59:09;4.10;;;3.90;;
9661;SDS011;24982;52.344;12.990;2022-07-22T09:02:11;4.57;;;4.28;;
9661;SDS011;24982;52.344;12.990;2022-07-22T09:05:18;4.43;;;4.13;;
9661;SDS011;24982;52.344;12.990;2022-07-22T09:08:20;4.20;;;3.97;;
9661;SDS011;24982;52.344;12.990;2022-07-22T09:11:43;4.13;;;3.92;;
9661;SDS011;24982;52.344;12.990;2022-07-22T09:15:05;4.30;;;3.90;;
9661;SDS011;24982;52.344;12.990;2022-07-22T09:18:29;4.45;;;4.15;;
9661;SDS011;24982;52.344;12.990;2022-07-22T09:22:03;3.78;;;3.60;;
9661;SDS011;24982;52.344;12.990;2022-07-22T09:25:26;4.40;;;4.10;;
9661;SDS011;24982;52.344;12.990;2022-07-22T09:28:53;4.45;;;4.15;;
9661;SDS011;24982;52.344;12.990;2022-07-22T09:32:02;4.13;;;3.75;;
9661;SDS011;24982;52.344;12.990;2022-07-22T09:35:20;3.78;;;3.58;;
9661;SDS011;24982;52.344;12.990;2022-07-22T09:38:28;4.80;;;4.30;;
9661;SDS011;24982;52.344;12.990;2022-07-22T09:41:32;4.80;;;3.70;;
9661;SDS011;24982;52.344;12.990;2022-07-22T09:44:34;4.03;;;3.72;;
9661;SDS011;24982;52.344;12.990;2022-07-22T09:47:48;4.60;;;4.00;;
9661;SDS011;24982;52.344;12.990;2022-07-22T09:51:08;3.35;;;3.15;;
9661;SDS011;24982;52.344;12.990;2022-07-22T09:54:30;3.30;;;3.20;;
9661;SDS011;24982;52.344;12.990;2022-07-22T09:57:33;3.50;;;3.30;;
9661;SDS011;24982;52.344;12.990;2022-07-22T10:00:36;3.20;;;2.92;;
9661;SDS011;24982;52.344;12.990;2022-07-22T10:03:39;3.08;;;2.97;;
9661;SDS011;24982;52.344;12.990;2022-07-22T10:06:43;3.10;;;3.00;;
9661;SDS011;24982;52.344;12.990;2022-07-22T10:09:53;4.53;;;2.85;;
9661;SDS011;24982;52.344;12.990;2022-07-22T10:12:56;3.70;;;3.50;;
9661;SDS011;24982;52.344;12.990;2022-07-22T10:16:00;4.10;;;3.90;;
9661;SDS011;24982;52.344;12.990;2022-07-22T10:19:02;4.30;;;4.00;;
9661;SDS011;24982;52.344;12.990;2022-07-22T10:22:04;3.95;;;3.60;;
9661;SDS011;24982;52.344;12.990;2022-07-22T10:25:09;4.65;;;4.35;;
9661;SDS011;24982;52.344;12.990;2022-07-22T10:28:19;4.40;;;4.10;;
9661;SDS011;24982;52.344;12.990;2022-07-22T10:31:23;3.97;;;3.72;;
9661;SDS011;24982;52.344;12.990;2022-07-22T10:34:25;4.28;;;3.90;;
9661;SDS011;24982;52.344;12.990;2022-07-22T10:37:37;4.18;;;3.88;;
9661;SDS011;24982;52.344;12.990;2022-07-22T10:40:49;3.42;;;3.33;;
9661;SDS011;24982;52.344;12.990;2022-07-22T10:43:53;3.85;;;3.58;;
9661;SDS011;24982;52.344;12.990;2022-07-22T10:46:55;3.42;;;3.13;;
9661;SDS011;24982;52.344;12.990;2022-07-22T10:53:38;3.70;;;3.40;;
9661;SDS011;24982;52.344;12.990;2022-07-22T10:56:48;3.28;;;3.17;;
9661;SDS011;24982;52.344;12.990;2022-07-22T10:59:53;3.35;;;3.20;;
9661;SDS011;24982;52.344;12.990;2022-07-22T11:02:55;3.28;;;3.17;;
9661;SDS011;24982;52.344;12.990;2022-07-22T11:05:57;3.33;;;3.05;;
9661;SDS011;24982;52.344;12.990;2022-07-22T11:09:16;3.28;;;3.17;;
9661;SDS011;24982;52.344;12.990;2022-07-22T11:12:20;3.25;;;3.05;;
9661;SDS011;24982;52.344;12.990;2022-07-22T11:15:24;4.93;;;3.20;;
9661;SDS011;24982;52.344;12.990;2022-07-22T11:21:51;3.00;;;2.90;;
9661;SDS011;24982;52.344;12.990;2022-07-22T11:24:54;2.83;;;2.65;;
9661;SDS011;24982;52.344;12.990;2022-07-22T11:27:58;2.88;;;2.70;;
9661;SDS011;24982;52.344;12.990;2022-07-22T11:31:04;2.85;;;2.60;;
9661;SDS011;24982;52.344;12.990;2022-07-22T11:34:07;4.65;;;2.50;;
9661;SDS011;24982;52.344;12.990;2022-07-22T11:37:10;2.78;;;2.30;;
9661;SDS011;24982;52.344;12.990;2022-07-22T11:40:13;2.55;;;2.45;;
9661;SDS011;24982;52.344;12.990;2022-07-22T11:43:16;2.70;;;2.60;;
9661;SDS011;24982;52.344;12.990;2022-07-22T11:46:18;2.67;;;2.50;;
9661;SDS011;24982;52.344;12.990;2022-07-22T11:49:20;2.03;;;2.03;;
9661;SDS011;24982;52.344;12.990;2022-07-22T11:52:23;2.30;;;2.20;;
9661;SDS011;24982;52.344;12.990;2022-07-22T11:55:24;2.60;;;2.40;;
9661;SDS011;24982;52.344;12.990;2022-07-22T11:58:38;1.90;;;1.90;;
9661;SDS011;24982;52.344;12.990;2022-07-22T12:01:42;1.90;;;1.90;;
9661;SDS011;24982;52.344;12.990;2022-07-22T12:04:45;2.17;;;2.08;;
9661;SDS011;24982;52.344;12.990;2022-07-22T12:07:48;1.90;;;1.90;;
9661;SDS011;24982;52.344;12.990;2022-07-22T12:10:50;1.90;;;1.90;;
9661;SDS011;24982;52.344;12.990;2022-07-22T12:13:53;1.98;;;1.98;;
9661;SDS011;24982;52.344;12.990;2022-07-22T12:16:57;1.88;;;1.80;;
9661;SDS011;24982;52.344;12.990;2022-07-22T12:20:08;1.80;;;1.77;;
9661;SDS011;24982;52.344;12.990;2022-07-22T12:23:12;2.47;;;1.80;;
9661;SDS011;24982;52.344;12.990;2022-07-22T12:26:16;1.80;;;1.70;;
9661;SDS011;24982;52.344;12.990;2022-07-22T12:29:20;3.72;;;1.60;;
9661;SDS011;24982;52.344;12.990;2022-07-22T12:32:25;3.20;;;2.13;;
9661;SDS011;24982;52.344;12.990;2022-07-22T12:35:28;2.05;;;2.00;;
9661;SDS011;24982;52.344;12.990;2022-07-22T12:38:30;1.80;;;1.80;;
9661;SDS011;24982;52.344;12.990;2022-07-22T12:41:33;1.50;;;1.50;;
9661;SDS011;24982;52.344;12.990;2022-07-22T12:44:36;1.85;;;1.80;;
9661;SDS011;24982;52.344;12.990;2022-07-22T12:47:39;2.15;;;1.80;;
9661;SDS011;24982;52.344;12.990;2022-07-22T12:50:56;2.40;;;1.77;;
9661;SDS011;24982;52.344;12.990;2022-07-22T12:53:59;1.98;;;1.70;;
9661;SDS011;24982;52.344;12.990;2022-07-22T12:57:01;4.75;;;2.45;;
9661;SDS011;24982;52.344;12.990;2022-07-22T13:00:06;2.40;;;1.77;;
9661;SDS011;24982;52.344;12.990;2022-07-22T13:03:09;2.00;;;1.90;;
9661;SDS011;24982;52.344;12.990;2022-07-22T13:06:11;1.90;;;1.80;;
9661;SDS011;24982;52.344;12.990;2022-07-22T13:09:14;2.10;;;2.00;;
9661;SDS011;24982;52.344;12.990;2022-07-22T13:12:16;2.00;;;1.90;;
9661;SDS011;24982;52.344;12.990;2022-07-22T13:15:20;1.88;;;1.88;;
9661;SDS011;24982;52.344;12.990;2022-07-22T13:18:22;1.90;;;1.80;;
9661;SDS011;24982;52.344;12.990;2022-07-22T13:21:24;1.67;;;1.67;;
9661;SDS011;24982;52.344;12.990;2022-07-22T13:24:26;1.63;;;1.63;;
9661;SDS011;24982;52.344;12.990;2022-07-22T13:27:28;2.15;;;1.60;;
9661;SDS011;24982;52.344;12.990;2022-07-22T13:30:32;1.63;;;1.58;;
9661;SDS011;24982;52.344;12.990;2022-07-22T13:33:34;1.63;;;1.52;;
9661;SDS011;24982;52.344;12.990;2022-07-22T13:36:36;1.60;;;1.60;;
9661;SDS011;24982;52.344;12.990;2022-07-22T13:39:38;1.70;;;1.70;;
9661;SDS011;24982;52.344;12.990;2022-07-22T13:42:42;2.50;;;1.88;;
9661;SDS011;24982;52.344;12.990;2022-07-22T13:45:45;1.70;;;1.70;;
9661;SDS011;24982;52.344;12.990;2022-07-22T13:48:48;1.73;;;1.73;;
9661;SDS011;24982;52.344;12.990;2022-07-22T13:51:50;2.60;;;2.00;;
9661;SDS011;24982;52.344;12.990;2022-07-22T13:54:52;2.00;;;2.00;;
9661;SDS011;24982;52.344;12.990;2022-07-22T13:57:54;1.55;;;1.50;;
9661;SDS011;24982;52.344;12.990;2022-07-22T14:00:59;1.95;;;1.85;;
9661;SDS011;24982;52.344;12.990;2022-07-22T14:04:01;2.65;;;2.50;;
9661;SDS011;24982;52.344;12.990;2022-07-22T14:07:04;2.63;;;2.30;;
9661;SDS011;24982;52.344;12.990;2022-07-22T14:10:06;2.17;;;2.08;;
9661;SDS011;24982;52.344;12.990;2022-07-22T14:13:09;2.63;;;2.53;;
9661;SDS011;24982;52.344;12.990;2022-07-22T14:16:12;2.10;;;1.90;;
9661;SDS011;24982;52.344;12.990;2022-07-22T14:19:32;2.53;;;2.10;;
9661;SDS011;24982;52.344;12.990;2022-07-22T14:22:34;2.03;;;1.92;;
9661;SDS011;24982;52.344;12.990;2022-07-22T14:25:37;2.45;;;1.60;;
9661;SDS011;24982;52.344;12.990;2022-07-22T14:28:39;2.15;;;1.80;;
9661;SDS011;24982;52.344;12.990;2022-07-22T14:31:42;2.50;;;1.80;;
9661;SDS011;24982;52.344;12.990;2022-07-22T14:34:47;2.45;;;2.28;;
9661;SDS011;24982;52.344;12.990;2022-07-22T14:37:50;1.73;;;1.70;;
9661;SDS011;24982;52.344;12.990;2022-07-22T14:40:52;2.00;;;1.92;;
9661;SDS011;24982;52.344;12.990;2022-07-22T14:43:54;3.08;;;1.92;;
9661;SDS011;24982;52.344;12.990;2022-07-22T14:46:58;2.67;;;1.90;;
9661;SDS011;24982;52.344;12.990;2022-07-22T14:50:00;2.20;;;2.00;;
9661;SDS011;24982;52.344;12.990;2022-07-22T14:53:02;2.03;;;2.03;;
9661;SDS011;24982;52.344;12.990;2022-07-22T14:56:04;2.05;;;1.77;;
9661;SDS011;24982;52.344;12.990;2022-07-22T14:59:06;5.95;;;2.10;;
9661;SDS011;24982;52.344;12.990;2022-07-22T15:02:10;5.60;;;2.00;;
9661;SDS011;24982;52.344;12.990;2022-07-22T15:05:12;2.40;;;2.20;;
9661;SDS011;24982;52.344;12.990;2022-07-22T15:08:14;2.20;;;2.10;;
9661;SDS011;24982;52.344;12.990;2022-07-22T15:11:18;4.03;;;2.10;;
9661;SDS011;24982;52.344;12.990;2022-07-22T15:14:20;3.08;;;2.15;;
9661;SDS011;24982;52.344;12.990;2022-07-22T15:17:23;2.50;;;2.40;;
9661;SDS011;24982;52.344;12.990;2022-07-22T15:20:25;2.45;;;2.30;;
9661;SDS011;24982;52.344;12.990;2022-07-22T15:23:27;2.72;;;2.40;;
9661;SDS011;24982;52.344;12.990;2022-07-22T15:26:30;2.20;;;2.20;;
9661;SDS011;24982;52.344;12.990;2022-07-22T15:29:33;2.58;;;2.47;;
9661;SDS011;24982;52.344;12.990;2022-07-22T15:32:36;4.88;;;2.30;;
9661;SDS011;24982;52.344;12.990;2022-07-22T15:35:39;2.30;;;2.30;;
9661;SDS011;24982;52.344;12.990;2022-07-22T15:38:41;2.63;;;2.40;;
9661;SDS011;24982;52.344;12.990;2022-07-22T15:41:43;3.40;;;2.33;;
9661;SDS011;24982;52.344;12.990;2022-07-22T15:44:45;2.85;;;2.47;;
9661;SDS011;24982;52.344;12.990;2022-07-22T15:47:48;2.72;;;2.63;;
9661;SDS011;24982;52.344;12.990;2022-07-22T15:50:50;2.83;;;2.63;;
9661;SDS011;24982;52.344;12.990;2022-07-22T15:53:52;5.70;;;3.05;;
9661;SDS011;24982;52.344;12.990;2022-07-22T15:56:55;2.95;;;2.83;;
9661;SDS011;24982;52.344;12.990;2022-07-22T16:00:17;2.92;;;2.58;;
9661;SDS011;24982;52.344;12.990;2022-07-22T16:03:19;2.85;;;2.70;;
9661;SDS011;24982;52.344;12.990;2022-07-22T16:06:21;3.03;;;2.80;;
9661;SDS011;24982;52.344;12.990;2022-07-22T16:09:23;3.30;;;3.10;;
9661;SDS011;24982;52.344;12.990;2022-07-22T16:12:25;2.88;;;2.78;;
9661;SDS011;24982;52.344;12.990;2022-07-22T16:15:27;3.63;;;3.17;;
9661;SDS011;24982;52.344;12.990;2022-07-22T16:18:31;3.13;;;3.03;;
9661;SDS011;24982;52.344;12.990;2022-07-22T16:21:33;3.67;;;3.28;;
9661;SDS011;24982;52.344;12.990;2022-07-22T16:24:35;3.42;;;3.22;;
9661;SDS011;24982;52.344;12.990;2022-07-22T16:27:37;19.83;;;4.82;;
9661;SDS011;24982;52.344;12.990;2022-07-22T16:30:39;3.35;;;3.10;;
9661;SDS011;24982;52.344;12.990;2022-07-22T16:33:42;3.33;;;3.20;;
9661;SDS011;24982;52.344;12.990;2022-07-22T16:36:45;3.17;;;2.75;;
9661;SDS011;24982;52.344;12.990;2022-07-22T16:39:48;3.30;;;3.10;;
9661;SDS011;24982;52.344;12.990;2022-07-22T16:42:50;2.95;;;2.80;;
9661;SDS011;24982;52.344;12.990;2022-07-22T16:45:52;3.20;;;3.03;;
9661;SDS011;24982;52.344;12.990;2022-07-22T16:48:55;3.17;;;2.83;;
9661;SDS011;24982;52.344;12.990;2022-07-22T16:51:57;3.05;;;2.95;;
9661;SDS011;24982;52.344;12.990;2022-07-22T16:55:00;3.25;;;3.10;;
9661;SDS011;24982;52.344;12.990;2022-07-22T16:58:02;5.68;;;3.05;;
9661;SDS011;24982;52.344;12.990;2022-07-22T17:01:04;3.30;;;3.00;;
9661;SDS011;24982;52.344;12.990;2022-07-22T17:04:08;3.35;;;3.05;;
9661;SDS011;24982;52.344;12.990;2022-07-22T17:07:10;3.40;;;3.10;;
9661;SDS011;24982;52.344;12.990;2022-07-22T17:10:12;4.18;;;3.17;;
9661;SDS011;24982;52.344;12.990;2022-07-22T17:13:14;3.42;;;3.28;;
9661;SDS011;24982;52.344;12.990;2022-07-22T17:16:16;3.33;;;3.05;;
9661;SDS011;24982;52.344;12.990;2022-07-22T17:19:19;3.40;;;3.20;;
9661;SDS011;24982;52.344;12.990;2022-07-22T17:22:21;3.30;;;3.10;;
9661;SDS011;24982;52.344;12.990;2022-07-22T17:25:23;3.10;;;2.90;;
9661;SDS011;24982;52.344;12.990;2022-07-22T17:28:25;2.90;;;2.80;;
9661;SDS011;24982;52.344;12.990;2022-07-22T17:31:28;3.33;;;3.13;;
9661;SDS011;24982;52.344;12.990;2022-07-22T17:34:31;3.55;;;3.33;;
9661;SDS011;24982;52.344;12.990;2022-07-22T17:37:33;4.05;;;2.95;;
9661;SDS011;24982;52.344;12.990;2022-07-22T17:40:35;3.17;;;2.90;;
9661;SDS011;24982;52.344;12.990;2022-07-22T17:43:38;3.20;;;2.90;;
9661;SDS011;24982;52.344;12.990;2022-07-22T17:46:40;3.30;;;3.10;;
9661;SDS011;24982;52.344;12.990;2022-07-22T17:49:43;3.60;;;3.30;;
9661;SDS011;24982;52.344;12.990;2022-07-22T17:52:45;4.55;;;3.05;;
9661;SDS011;24982;52.344;12.990;2022-07-22T17:55:47;3.05;;;2.92;;
9661;SDS011;24982;52.344;12.990;2022-07-22T17:58:49;3.53;;;3.33;;
9661;SDS011;24982;52.344;12.990;2022-07-22T18:01:51;3.33;;;3.13;;
9661;SDS011;24982;52.344;12.990;2022-07-22T18:04:55;3.92;;;3.63;;
9661;SDS011;24982;52.344;12.990;2022-07-22T18:07:57;3.28;;;3.08;;
9661;SDS011;24982;52.344;12.990;2022-07-22T18:10:59;3.22;;;3.03;;
9661;SDS011;24982;52.344;12.990;2022-07-22T18:14:01;3.92;;;3.13;;
9661;SDS011;24982;52.344;12.990;2022-07-22T18:17:03;3.47;;;3.25;;
9661;SDS011;24982;52.344;12.990;2022-07-22T18:20:07;4.82;;;3.50;;
9661;SDS011;24982;52.344;12.990;2022-07-22T18:23:10;4.20;;;3.90;;
9661;SDS011;24982;52.344;12.990;2022-07-22T18:26:12;5.82;;;3.60;;
9661;SDS011;24982;52.344;12.990;2022-07-22T18:29:14;4.47;;;3.60;;
9661;SDS011;24982;52.344;12.990;2022-07-22T18:32:16;4.45;;;3.50;;